createdAt,value
2024-01-06T00:01:14.885Z,100597.78
2024-01-06T00:03:41.509Z,100607.38
2024-01-06T00:06:08.220Z,100604.91
2024-01-06T00:08:34.821Z,100616.38
2024-01-06T00:11:03.959Z,100625.03
2024-01-06T00:13:30.899Z,100615.59
2024-01-06T00:15:57.939Z,100621.72
2024-01-06T00:18:24.754Z,100626.00
2024-01-06T00:20:51.593Z,100635.69
2024-01-06T00:23:18.120Z,100640.53
2024-01-06T00:25:44.668Z,100640.69
2024-01-06T00:28:11.286Z,100648.50
2024-01-06T00:30:37.818Z,100643.47
2024-01-06T00:33:04.726Z,100652.31
2024-01-06T00:35:31.277Z,100644.81
2024-01-06T00:37:57.905Z,100649.50
2024-01-06T00:40:24.424Z,100648.72
2024-01-06T00:42:51.010Z,100643.53
2024-01-06T00:45:18.109Z,100655.78
2024-01-06T00:47:44.799Z,100661.16
2024-01-06T00:50:11.456Z,100658.72
2024-01-06T00:52:37.982Z,100658.63
2024-01-06T00:55:04.843Z,100655.91
2024-01-06T00:57:31.485Z,100657.69
2024-01-06T00:59:58.218Z,100662.13
2024-01-06T01:02:24.744Z,100655.22
2024-01-06T01:04:51.361Z,100659.56
2024-01-06T01:07:18.014Z,100663.22
2024-01-06T01:09:44.592Z,100670.16
2024-01-06T01:12:11.217Z,100685.06
2024-01-06T01:14:37.740Z,100683.47
2024-01-06T01:17:05.480Z,100687.00
2024-01-06T01:19:32.119Z,100688.03
2024-01-06T01:21:58.769Z,100690.72
2024-01-06T01:24:25.396Z,100701.22
2024-01-06T01:26:51.995Z,100696.16
2024-01-06T01:29:21.185Z,100705.13
2024-01-06T01:31:48.470Z,100707.88
2024-01-06T01:34:15.497Z,100711.44
2024-01-06T01:36:42.644Z,100712.84
2024-01-06T01:39:09.260Z,100715.47
2024-01-06T01:41:35.811Z,100713.09
2024-01-06T01:44:02.805Z,100723.47
2024-01-06T01:46:31.652Z,100736.47
2024-01-06T01:49:00.619Z,100742.09
2024-01-06T01:51:34.155Z,100746.50
2024-01-06T01:54:06.521Z,100741.25
2024-01-06T01:56:36.403Z,100744.84
2024-01-06T01:59:10.412Z,100746.69
2024-01-06T02:01:37.068Z,100751.00
2024-01-06T02:04:04.212Z,100751.84
2024-01-06T02:06:30.873Z,100755.34
2024-01-06T02:08:57.582Z,100757.88
2024-01-06T02:11:24.179Z,100753.63
2024-01-06T02:13:50.757Z,100763.28
2024-01-06T02:16:17.420Z,100760.72
2024-01-06T02:18:44.111Z,100753.78
2024-01-06T02:21:11.225Z,100760.88
2024-01-06T02:23:38.224Z,100765.19
2024-01-06T02:26:05.115Z,100773.84
2024-01-06T02:28:31.711Z,100770.22
2024-01-06T02:30:58.449Z,100773.00
2024-01-06T02:33:25.610Z,100776.47
2024-01-06T02:35:52.407Z,100780.81
2024-01-06T02:38:18.961Z,100779.09
2024-01-06T02:40:45.508Z,100781.66
2024-01-06T02:43:12.119Z,100790.38
2024-01-06T02:45:38.729Z,100797.50
2024-01-06T02:48:05.845Z,100798.50
2024-01-06T02:50:32.494Z,100802.59
2024-01-06T02:52:59.008Z,100806.91
2024-01-06T02:55:25.502Z,100809.56
2024-01-06T02:57:52.097Z,100807.88
2024-01-06T03:00:18.994Z,100811.34
2024-01-06T03:02:45.636Z,100810.63
2024-01-06T03:05:12.255Z,100815.09
2024-01-06T03:07:38.877Z,100810.00
2024-01-06T03:10:05.776Z,100814.19
2024-01-06T03:12:32.419Z,100816.03
2024-01-06T03:14:59.647Z,100819.72
2024-01-06T03:17:26.433Z,100823.28
2024-01-06T03:19:53.187Z,100825.06
2024-01-06T03:22:19.717Z,100833.84
2024-01-06T03:24:46.742Z,100837.47
2024-01-06T03:27:13.992Z,100841.09
2024-01-06T03:29:40.919Z,100840.25
2024-01-06T03:32:07.564Z,100847.34
2024-01-06T03:34:34.162Z,100849.91
2024-01-06T03:37:00.779Z,100854.28
2024-01-06T03:39:27.308Z,100865.44
2024-01-06T03:41:53.804Z,100868.19
2024-01-06T03:44:20.399Z,100867.28
2024-01-06T03:46:47.011Z,100873.44
2024-01-06T03:49:13.845Z,100877.00
2024-01-06T03:51:40.499Z,100880.47
2024-01-06T03:54:07.085Z,100871.88
2024-01-06T03:56:33.593Z,100880.53
2024-01-06T03:59:00.082Z,100884.94
2024-01-06T04:01:26.744Z,100894.72
2024-01-06T04:03:53.368Z,100887.13
2024-01-06T04:06:20.106Z,100895.78
2024-01-06T04:08:46.685Z,100908.06
2024-01-06T04:11:13.231Z,100906.38
2024-01-06T04:13:39.932Z,100903.81
2024-01-06T04:16:06.829Z,100902.81
2024-01-06T04:18:33.652Z,100896.78
2024-01-06T04:21:00.457Z,100903.94
2024-01-06T04:23:27.012Z,100899.56
2024-01-06T04:25:53.736Z,100903.09
2024-01-06T04:28:20.308Z,100907.50
2024-01-06T04:30:46.932Z,100911.91
2024-01-06T04:33:13.730Z,100906.72
2024-01-06T04:35:40.467Z,100910.25
2024-01-06T04:38:07.031Z,100913.03
2024-01-06T04:40:33.633Z,100921.75
2024-01-06T04:43:00.312Z,100926.09
2024-01-06T04:45:26.942Z,100921.97
2024-01-06T04:47:53.945Z,100927.50
2024-01-06T04:50:20.484Z,100929.31
2024-01-06T04:52:46.994Z,100926.75
2024-01-06T04:55:13.557Z,100932.88
2024-01-06T04:57:40.221Z,100935.63
2024-01-06T05:00:07.189Z,100945.34
2024-01-06T05:02:34.080Z,100936.84
2024-01-06T05:05:00.647Z,100942.78
2024-01-06T05:07:27.190Z,100939.41
2024-01-06T05:09:53.818Z,100939.56
2024-01-06T05:12:20.498Z,100951.00
2024-01-06T05:14:47.105Z,100956.03
2024-01-06T05:17:13.622Z,100964.13
2024-01-06T05:19:40.197Z,100966.69
2024-01-06T05:22:06.842Z,100967.59
2024-01-06T05:24:33.448Z,100973.09
2024-01-06T05:27:00.085Z,100975.59
2024-01-06T05:29:27.270Z,100975.59
2024-01-06T05:31:54.399Z,100987.00
2024-01-06T05:34:21.091Z,100979.34
2024-01-06T05:36:47.798Z,100986.28
2024-01-06T05:39:14.467Z,100984.84
2024-01-06T05:41:41.742Z,100990.81
2024-01-06T05:44:08.600Z,100991.66
2024-01-06T05:46:35.961Z,100991.66
2024-01-06T05:49:02.819Z,100993.56
2024-01-06T05:51:29.450Z,101002.28
2024-01-06T05:53:55.989Z,101004.13
2024-01-06T05:56:26.931Z,101002.41
2024-01-06T05:58:54.486Z,101007.84
2024-01-06T06:01:23.577Z,101010.47
2024-01-06T06:03:51.401Z,101021.88
2024-01-06T06:06:18.107Z,101011.53
2024-01-06T06:08:45.241Z,101026.41
2024-01-06T06:11:12.319Z,101035.91
2024-01-06T06:13:40.208Z,101030.91
2024-01-06T06:16:07.007Z,101043.19
2024-01-06T06:18:34.221Z,101040.47
2024-01-06T06:21:01.267Z,101055.50
2024-01-06T06:23:29.888Z,101052.19
2024-01-06T06:25:56.484Z,101051.34
2024-01-06T06:28:23.063Z,101057.53
2024-01-06T06:30:49.683Z,101055.75
2024-01-06T06:33:16.509Z,101055.84
2024-01-06T06:35:43.529Z,101067.38
2024-01-06T06:38:10.048Z,101070.78
2024-01-06T06:40:36.649Z,101072.81
2024-01-06T06:43:03.272Z,101078.91
2024-01-06T06:45:29.962Z,101086.84
2024-01-06T06:47:56.575Z,101087.44
2024-01-06T06:50:23.143Z,101096.06
2024-01-06T06:52:49.671Z,101100.56
2024-01-06T06:55:16.295Z,101094.47
2024-01-06T06:57:42.901Z,101098.78
2024-01-06T07:00:09.849Z,101107.56
2024-01-06T07:02:36.496Z,101116.28
2024-01-06T07:05:03.241Z,101126.66
2024-01-06T07:07:29.917Z,101121.28
2024-01-06T07:09:56.631Z,101124.03
2024-01-06T07:12:23.233Z,101124.03
2024-01-06T07:14:49.840Z,101131.88
2024-01-06T07:17:16.454Z,101130.28
2024-01-06T07:19:43.102Z,101140.88
2024-01-06T07:22:09.765Z,101142.69
2024-01-06T07:24:37.503Z,101150.47
2024-01-06T07:27:04.509Z,101150.47
2024-01-06T07:29:31.189Z,101155.72
2024-01-06T07:31:58.227Z,101148.78
2024-01-06T07:34:26.531Z,101147.97
2024-01-06T07:36:53.345Z,101155.72
2024-01-06T07:39:20.052Z,101160.00
2024-01-06T07:41:49.422Z,101163.59
2024-01-06T07:44:17.111Z,101164.47
2024-01-06T07:46:43.685Z,101170.41
2024-01-06T07:49:10.389Z,101175.84
2024-01-06T07:51:37.093Z,101185.34
2024-01-06T07:54:04.059Z,101192.31
2024-01-06T07:56:30.591Z,101192.38
2024-01-06T07:58:57.129Z,101202.84
2024-01-06T08:01:24.121Z,101202.06
2024-01-06T08:03:50.894Z,101202.81
2024-01-06T08:06:17.583Z,101208.84
2024-01-06T08:08:44.217Z,101214.13
2024-01-06T08:11:10.692Z,101214.97
2024-01-06T08:13:37.182Z,101222.81
2024-01-06T08:16:04.197Z,101231.50
2024-01-06T08:18:30.963Z,101230.63
2024-01-06T08:20:57.814Z,101228.78
2024-01-06T08:23:24.323Z,101227.16
2024-01-06T08:25:50.870Z,101237.56
2024-01-06T08:28:19.597Z,101227.06
2024-01-06T08:30:46.582Z,101240.97
2024-01-06T08:33:13.332Z,101232.22
2024-01-06T08:35:41.495Z,101243.56
2024-01-06T08:38:11.410Z,101247.09
2024-01-06T08:40:38.236Z,101254.84
2024-01-06T08:43:05.011Z,101262.69
2024-01-06T08:45:31.605Z,101260.13
2024-01-06T08:47:58.286Z,101260.13
2024-01-06T08:50:24.880Z,101271.41
2024-01-06T08:52:51.402Z,101274.97
2024-01-06T08:55:17.958Z,101275.75
2024-01-06T08:57:44.548Z,101277.47
2024-01-06T09:00:12.088Z,101282.66
2024-01-06T09:02:39.350Z,101294.91
2024-01-06T09:05:06.576Z,101297.53
2024-01-06T09:07:33.262Z,101305.31
2024-01-06T09:10:00.606Z,101303.63
2024-01-06T09:12:27.395Z,101311.44
2024-01-06T09:14:53.957Z,101314.94
2024-01-06T09:17:20.588Z,101316.56
2024-01-06T09:19:47.305Z,101321.81
2024-01-06T09:22:14.324Z,101323.47
2024-01-06T09:24:40.891Z,101318.13
2024-01-06T09:27:07.441Z,101326.84
2024-01-06T09:29:33.953Z,101327.63
2024-01-06T09:32:00.641Z,101334.44
2024-01-06T09:34:27.297Z,101339.72
2024-01-06T09:36:53.969Z,101338.00
2024-01-06T09:39:20.576Z,101348.19
2024-01-06T09:41:47.206Z,101357.66
2024-01-06T09:44:16.847Z,101357.53
2024-01-06T09:46:44.737Z,101357.59
2024-01-06T09:49:11.927Z,101360.28
2024-01-06T09:51:40.918Z,101367.91
2024-01-06T09:54:10.530Z,101367.00
2024-01-06T09:56:37.334Z,101368.81
2024-01-06T09:59:04.551Z,101367.16
2024-01-06T10:01:31.194Z,101372.38
2024-01-06T10:03:57.849Z,101373.09
2024-01-06T10:06:24.415Z,101373.09
2024-01-06T10:08:52.841Z,101371.38
2024-01-06T10:11:22.186Z,101385.25
2024-01-06T10:13:52.570Z,101389.63
2024-01-06T10:16:20.351Z,101396.81
2024-01-06T10:18:52.534Z,101408.13
2024-01-06T10:21:25.975Z,101401.91
2024-01-06T10:23:52.655Z,101408.06
2024-01-06T10:26:19.427Z,101417.66
2024-01-06T10:28:45.997Z,101414.94
2024-01-06T10:31:12.882Z,101424.53
2024-01-06T10:33:40.716Z,101421.91
2024-01-06T10:36:08.214Z,101426.31
2024-01-06T10:38:35.703Z,101426.22
2024-01-06T10:41:08.260Z,101426.00
2024-01-06T10:43:37.794Z,101428.53
2024-01-06T10:46:05.947Z,101427.69
2024-01-06T10:48:36.924Z,101433.97
2024-01-06T10:51:08.446Z,101434.16
2024-01-06T10:53:42.092Z,101436.88
2024-01-06T10:56:10.557Z,101427.41
2024-01-06T10:58:43.755Z,101441.31
2024-01-06T11:01:11.375Z,101438.75
2024-01-06T11:03:39.591Z,101438.75
2024-01-06T11:06:13.460Z,101443.94
2024-01-06T11:08:54.220Z,101446.56
2024-01-06T11:11:21.580Z,101443.78
2024-01-06T11:13:49.483Z,101444.59
2024-01-06T11:16:38.803Z,101450.66
2024-01-06T11:19:41.683Z,101447.94
2024-01-06T11:22:33.487Z,101459.09
2024-01-06T11:25:18.004Z,101450.28
2024-01-06T11:27:46.598Z,101450.22
2024-01-06T11:30:35.072Z,101455.31
2024-01-06T11:33:05.944Z,101451.91
2024-01-06T11:35:32.595Z,101443.44
2024-01-06T11:38:02.149Z,101447.72
2024-01-06T11:40:36.828Z,101456.34
2024-01-06T11:43:07.282Z,101449.31
2024-01-06T11:45:35.481Z,101452.75
2024-01-06T11:48:04.770Z,101460.53
2024-01-06T11:50:34.849Z,101448.25
2024-01-06T11:53:02.380Z,101452.53
2024-01-06T11:55:29.440Z,101458.84
2024-01-06T11:57:58.832Z,101452.97
2024-01-06T12:00:25.601Z,101459.09
2024-01-06T12:02:58.077Z,101455.81
2024-01-06T12:05:26.043Z,101461.16
2024-01-06T12:07:58.519Z,101450.75
2024-01-06T12:10:27.024Z,101451.72
2024-01-06T12:13:00.441Z,101454.16
2024-01-06T12:15:28.167Z,101465.50
2024-01-06T12:17:54.860Z,101467.41
2024-01-06T12:20:23.827Z,101470.94
2024-01-06T12:22:52.812Z,101459.75
2024-01-06T12:25:19.388Z,101470.97
2024-01-06T12:27:47.313Z,101469.31
2024-01-06T12:30:20.255Z,101471.28
2024-01-06T12:32:50.375Z,101465.97
2024-01-06T12:35:18.212Z,101474.75
2024-01-06T12:37:46.198Z,101473.84
2024-01-06T12:40:14.429Z,101475.59
2024-01-06T12:42:41.533Z,101475.59
2024-01-06T12:45:08.689Z,101470.34
2024-01-06T12:47:35.796Z,101473.91
2024-01-06T12:50:02.565Z,101476.41
2024-01-06T12:52:29.125Z,101468.59
2024-01-06T12:54:55.688Z,101476.34
2024-01-06T12:57:22.348Z,101484.22
2024-01-06T12:59:56.714Z,101481.72
2024-01-06T13:02:23.238Z,101479.94
2024-01-06T13:04:49.839Z,101488.72
2024-01-06T13:07:16.455Z,101491.53
2024-01-06T13:09:43.202Z,101487.25
2024-01-06T13:12:09.744Z,101493.47
2024-01-06T13:14:36.997Z,101494.44
2024-01-06T13:17:04.019Z,101491.88
2024-01-06T13:19:30.851Z,101492.75
2024-01-06T13:21:57.506Z,101494.50
2024-01-06T13:24:24.718Z,101501.44
2024-01-06T13:26:51.323Z,101502.38
2024-01-06T13:29:19.086Z,101498.13
2024-01-06T13:31:45.991Z,101506.84
2024-01-06T13:34:12.977Z,101512.25
2024-01-06T13:36:39.738Z,101506.13
2024-01-06T13:39:06.455Z,101512.16
2024-01-06T13:41:33.083Z,101520.13
2024-01-06T13:43:59.657Z,101518.44
2024-01-06T13:46:26.178Z,101523.75
2024-01-06T13:48:53.028Z,101522.94
2024-01-06T13:51:19.763Z,101520.44
2024-01-06T13:53:46.356Z,101530.00
2024-01-06T13:56:12.894Z,101530.06
2024-01-06T13:58:39.810Z,101534.44
2024-01-06T14:01:06.534Z,101538.00
2024-01-06T14:03:33.948Z,101539.69
2024-01-06T14:06:00.928Z,101537.13
2024-01-06T14:08:27.744Z,101544.94
2024-01-06T14:10:54.388Z,101538.00
2024-01-06T14:13:21.082Z,101545.78
2024-01-06T14:15:48.004Z,101552.75
2024-01-06T14:18:17.347Z,101553.72
2024-01-06T14:20:44.174Z,101550.38
2024-01-06T14:23:11.894Z,101553.81
2024-01-06T14:25:38.508Z,101550.31
2024-01-06T14:28:07.253Z,101559.97
2024-01-06T14:30:34.012Z,101571.34
2024-01-06T14:33:01.099Z,101573.13
2024-01-06T14:35:27.762Z,101579.19
2024-01-06T14:37:55.241Z,101581.84
2024-01-06T14:40:21.949Z,101581.16
2024-01-06T14:42:48.859Z,101590.72
2024-01-06T14:45:15.755Z,101590.72
2024-01-06T14:47:42.391Z,101584.66
2024-01-06T14:50:09.322Z,101589.06
2024-01-06T14:52:35.866Z,101595.97
2024-01-06T14:55:02.522Z,101599.59
2024-01-06T14:57:29.152Z,101603.97
2024-01-06T14:59:55.714Z,101605.72
2024-01-06T15:02:22.243Z,101611.81
2024-01-06T15:04:49.045Z,101610.94
2024-01-06T15:07:15.788Z,101612.66
2024-01-06T15:09:43.064Z,101617.00
2024-01-06T15:12:09.785Z,101610.00
2024-01-06T15:14:36.393Z,101622.13
2024-01-06T15:17:03.046Z,101613.50
2024-01-06T15:19:32.285Z,101616.94
2024-01-06T15:21:59.019Z,101619.66
2024-01-06T15:24:25.876Z,101617.91
2024-01-06T15:26:53.443Z,101623.09
2024-01-06T15:29:19.986Z,101630.97
2024-01-06T15:31:47.626Z,101624.00
2024-01-06T15:34:14.518Z,101629.22
2024-01-06T15:36:41.266Z,101628.38
2024-01-06T15:39:07.911Z,101638.03
2024-01-06T15:41:34.518Z,101647.66
2024-01-06T15:44:01.508Z,101645.13
2024-01-06T15:46:28.073Z,101652.13
2024-01-06T15:48:54.925Z,101646.88
2024-01-06T15:51:24.090Z,101653.81
2024-01-06T15:53:51.207Z,101657.38
2024-01-06T15:56:17.893Z,101660.88
2024-01-06T15:58:44.476Z,101666.22
2024-01-06T16:01:11.112Z,101673.09
2024-01-06T16:03:37.806Z,101665.22
2024-01-06T16:06:04.751Z,101664.47
2024-01-06T16:08:31.345Z,101666.31
2024-01-06T16:10:58.071Z,101678.41
2024-01-06T16:13:24.710Z,101676.69
2024-01-06T16:15:53.606Z,101687.19
2024-01-06T16:18:20.996Z,101686.41
2024-01-06T16:20:48.395Z,101694.28
2024-01-06T16:23:18.127Z,101698.72
2024-01-06T16:25:44.942Z,101702.25
2024-01-06T16:28:14.353Z,101701.47
2024-01-06T16:30:41.984Z,101706.75
2024-01-06T16:33:09.490Z,101705.06
2024-01-06T16:35:36.162Z,101708.66
2024-01-06T16:38:03.290Z,101715.66
2024-01-06T16:40:30.462Z,101708.72
2024-01-06T16:42:57.083Z,101710.50
2024-01-06T16:45:24.030Z,101709.66
2024-01-06T16:47:50.684Z,101719.31
2024-01-06T16:50:17.335Z,101717.56
2024-01-06T16:52:43.867Z,101720.19
2024-01-06T16:55:10.541Z,101712.47
2024-01-06T16:57:37.194Z,101723.84
2024-01-06T17:00:06.089Z,101717.69
2024-01-06T17:02:32.955Z,101729.94
2024-01-06T17:04:59.782Z,101730.78
2024-01-06T17:07:26.425Z,101725.63
2024-01-06T17:09:53.168Z,101728.25
2024-01-06T17:12:22.759Z,101731.72
2024-01-06T17:14:49.918Z,101730.00
2024-01-06T17:17:16.460Z,101730.09
2024-01-06T17:19:43.156Z,101731.91
2024-01-06T17:22:09.799Z,101738.03
2024-01-06T17:24:37.138Z,101741.63
2024-01-06T17:27:04.213Z,101747.84
2024-01-06T17:29:31.707Z,101737.44
2024-01-06T17:31:59.392Z,101748.78
2024-01-06T17:34:25.982Z,101748.91
2024-01-06T17:36:52.641Z,101749.91
2024-01-06T17:39:19.213Z,101747.28
2024-01-06T17:41:53.383Z,101745.56
2024-01-06T17:44:26.153Z,101754.31
2024-01-06T17:46:52.656Z,101753.50
2024-01-06T17:49:19.385Z,101752.69
2024-01-06T17:51:46.084Z,101757.09
2024-01-06T17:54:13.762Z,101759.84
2024-01-06T17:56:40.490Z,101771.97
2024-01-06T17:59:07.128Z,101769.47
2024-01-06T18:01:33.749Z,101774.69
2024-01-06T18:04:00.572Z,101772.97
2024-01-06T18:06:27.539Z,101778.28
2024-01-06T18:08:54.337Z,101788.75
2024-01-06T18:11:20.910Z,101787.94
2024-01-06T18:13:47.421Z,101790.56
2024-01-06T18:16:15.112Z,101781.88
2024-01-06T18:18:41.821Z,101792.34
2024-01-06T18:21:10.001Z,101794.97
2024-01-06T18:23:36.668Z,101794.06
2024-01-06T18:26:04.217Z,101797.50
2024-01-06T18:28:31.244Z,101801.97
2024-01-06T18:30:58.028Z,101804.66
2024-01-06T18:33:24.711Z,101805.59
2024-01-06T18:35:51.333Z,101805.63
2024-01-06T18:38:17.945Z,101803.03
2024-01-06T18:40:44.508Z,101803.13
2024-01-06T18:43:11.119Z,101817.03
2024-01-06T18:45:37.843Z,101811.84
2024-01-06T18:48:04.921Z,101817.03
2024-01-06T18:50:31.519Z,101820.53
2024-01-06T18:52:58.048Z,101820.63
2024-01-06T18:55:24.762Z,101814.47
2024-01-06T18:57:53.248Z,101820.53
2024-01-06T19:00:20.726Z,101822.31
2024-01-06T19:02:49.107Z,101820.69
2024-01-06T19:05:15.931Z,101820.69
2024-01-06T19:07:45.852Z,101826.72
2024-01-06T19:10:12.723Z,101825.94
2024-01-06T19:12:39.885Z,101826.00
2024-01-06T19:15:06.731Z,101830.38
2024-01-06T19:17:33.250Z,101826.00
2024-01-06T19:20:01.301Z,101839.06
2024-01-06T19:22:27.834Z,101832.19
2024-01-06T19:24:55.591Z,101842.66
2024-01-06T19:27:22.351Z,101840.03
2024-01-06T19:29:49.018Z,101844.41
2024-01-06T19:32:16.712Z,101843.50
2024-01-06T19:34:43.698Z,101844.56
2024-01-06T19:37:10.503Z,101848.81
2024-01-06T19:39:37.202Z,101850.50
2024-01-06T19:42:04.613Z,101846.09
2024-01-06T19:44:31.223Z,101853.13
2024-01-06T19:47:01.582Z,101852.31
2024-01-06T19:49:28.604Z,101855.91
2024-01-06T19:51:55.379Z,101869.88
2024-01-06T19:54:22.161Z,101862.84
2024-01-06T19:56:48.904Z,101863.75
2024-01-06T19:59:15.573Z,101870.63
2024-01-06T20:01:42.142Z,101877.66
2024-01-06T20:04:08.904Z,101878.63
2024-01-06T20:06:35.740Z,101881.31
2024-01-06T20:09:02.660Z,101880.50
2024-01-06T20:11:29.170Z,101878.84
2024-01-06T20:13:56.543Z,101883.34
2024-01-06T20:16:23.376Z,101890.28
2024-01-06T20:18:50.252Z,101889.44
2024-01-06T20:21:16.943Z,101892.13
2024-01-06T20:23:43.706Z,101888.69
2024-01-06T20:26:10.741Z,101900.94
2024-01-06T20:28:37.337Z,101896.63
2024-01-06T20:31:05.258Z,101900.03
2024-01-06T20:33:34.843Z,101905.34
2024-01-06T20:36:02.547Z,101904.50
2024-01-06T20:38:29.245Z,101908.88
2024-01-06T20:40:55.768Z,101913.22
2024-01-06T20:43:22.334Z,101913.19
2024-01-06T20:45:50.825Z,101912.38
2024-01-06T20:48:17.867Z,101908.88
2024-01-06T20:50:44.495Z,101921.06
2024-01-06T20:53:10.985Z,101924.63
2024-01-06T20:55:37.617Z,101911.50
2024-01-06T20:58:04.664Z,101907.22
2024-01-06T21:00:34.842Z,101917.59
2024-01-06T21:03:02.551Z,101916.75
2024-01-06T21:05:29.576Z,101918.53
2024-01-06T21:07:56.218Z,101915.06
2024-01-06T21:10:23.155Z,101920.22
2024-01-06T21:12:49.976Z,101922.00
2024-01-06T21:15:16.910Z,101918.56
2024-01-06T21:17:44.616Z,101917.72
2024-01-06T21:20:12.114Z,101923.75
2024-01-06T21:22:38.982Z,101929.84
2024-01-06T21:25:06.879Z,101924.63
2024-01-06T21:27:36.819Z,101935.16
2024-01-06T21:30:06.536Z,101916.00
2024-01-06T21:32:34.016Z,101928.28
2024-01-06T21:35:02.970Z,101929.16
2024-01-06T21:37:29.794Z,101933.59
2024-01-06T21:39:56.836Z,101924.03
2024-01-06T21:42:23.647Z,101927.56
2024-01-06T21:44:50.264Z,101936.22
2024-01-06T21:47:16.839Z,101944.09
2024-01-06T21:49:43.588Z,101940.59
2024-01-06T21:52:10.569Z,101944.09
2024-01-06T21:54:38.077Z,101943.25
2024-01-06T21:57:05.111Z,101944.16
2024-01-06T21:59:31.816Z,101945.88
2024-01-06T22:01:58.687Z,101945.94
2024-01-06T22:04:25.988Z,101941.59
2024-01-06T22:06:52.852Z,101949.44
2024-01-06T22:09:20.106Z,101950.31
2024-01-06T22:11:47.056Z,101952.88
2024-01-06T22:14:15.068Z,101957.22
2024-01-06T22:16:43.198Z,101961.56
2024-01-06T22:19:11.511Z,101965.13
2024-01-06T22:21:47.724Z,101975.63
2024-01-06T22:24:16.620Z,101972.97
2024-01-06T22:26:43.274Z,101978.19
2024-01-06T22:29:11.104Z,101974.81
2024-01-06T22:31:42.743Z,101972.19
2024-01-06T22:34:11.200Z,101972.13
2024-01-06T22:36:38.170Z,101981.81
2024-01-06T22:39:04.874Z,101970.47
2024-01-06T22:41:31.435Z,101980.91
2024-01-06T22:43:57.954Z,101982.75
2024-01-06T22:46:26.307Z,101981.91
2024-01-06T22:48:53.555Z,101981.94
2024-01-06T22:51:20.494Z,101996.78
2024-01-06T22:53:47.176Z,101995.81
2024-01-06T22:56:14.787Z,102007.16
2024-01-06T22:58:41.560Z,102012.44
2024-01-06T23:01:09.827Z,102006.34
2024-01-06T23:03:38.885Z,102009.00
2024-01-06T23:06:08.354Z,102013.38
2024-01-06T23:08:35.235Z,102017.72
2024-01-06T23:11:02.208Z,102022.09
2024-01-06T23:13:28.769Z,102022.97
2024-01-06T23:15:56.804Z,102022.94
2024-01-06T23:18:24.089Z,102018.69
2024-01-06T23:20:50.662Z,102019.56
2024-01-06T23:23:17.204Z,102025.75
2024-01-06T23:25:43.734Z,102026.66
2024-01-06T23:28:10.275Z,102031.03
2024-01-06T23:30:37.187Z,102031.91
2024-01-06T23:33:04.280Z,102025.84
2024-01-06T23:35:31.568Z,102034.59
2024-01-06T23:37:58.106Z,102033.84
2024-01-06T23:40:24.650Z,102038.97
2024-01-06T23:42:51.215Z,102036.41
2024-01-06T23:45:17.935Z,102042.53
2024-01-06T23:47:44.682Z,102052.09
2024-01-06T23:50:11.422Z,102053.88
2024-01-06T23:52:37.991Z,102052.94
2024-01-06T23:55:04.892Z,102055.59
2024-01-06T23:57:31.471Z,102055.69
2024-01-06T23:59:58.016Z,102060.03
